Time;durP1;ratioP1;P1;durP2;ratioP2;P2;SDS_P1;SDS_P2;PMS_P1;PMS_P2;Temp;Humidity;BMP_temperature;BMP_pressure;BME280_temperature;BME280_humidity;BME280_pressure;Samples;Min_cycle;Max_cycle;Signal;HPM_P1;HPM_P2
2021/04/19 00:01:08;;;;;;;8.25;2.67;;;;;;;;;;4150786;34;20133;-82
2021/04/19 00:03:39;;;;;;;10.45;2.55;;;;;;;;;;4119457;34;20514;-84
2021/04/19 00:06:11;;;;;;;10.38;2.50;;;;;;;;;;4117266;34;20099;-84
2021/04/19 00:08:39;;;;;;;12.85;2.83;;;;;;;;;;4121870;34;20125;-80
2021/04/19 00:11:10;;;;;;;8.27;2.53;;;;;;;;;;4145422;34;20091;-83
2021/04/19 00:13:40;;;;;;;12.32;2.60;;;;;;;;;;4129548;34;20099;-85
2021/04/19 00:16:08;;;;;;;9.15;2.70;;;;;;;;;;4130732;34;20537;-83
2021/04/19 00:18:38;;;;;;;7.90;2.20;;;;;;;;;;4124041;34;20151;-81
2021/04/19 00:21:10;;;;;;;7.18;2.40;;;;;;;;;;4137530;34;20120;-83
2021/04/19 00:23:40;;;;;;;9.73;2.65;;;;;;;;;;4139610;34;20122;-82
2021/04/19 00:26:11;;;;;;;9.40;2.40;;;;;;;;;;4136471;34;20437;-83
2021/04/19 00:28:39;;;;;;;8.80;2.65;;;;;;;;;;4136419;34;20111;-83
2021/04/19 00:31:10;;;;;;;8.90;2.85;;;;;;;;;;4122433;34;20045;-85
2021/04/19 00:33:42;;;;;;;12.13;2.37;;;;;;;;;;4131110;34;20100;-82
2021/04/19 00:36:12;;;;;;;11.32;2.65;;;;;;;;;;4138296;34;20100;-84
2021/04/19 00:38:43;;;;;;;8.57;2.28;;;;;;;;;;4127828;34;20104;-85
2021/04/19 00:41:14;;;;;;;13.52;2.78;;;;;;;;;;4140065;34;20056;-84
2021/04/19 00:43:44;;;;;;;8.27;2.25;;;;;;;;;;4126525;34;20131;-84
2021/04/19 00:46:14;;;;;;;14.63;2.85;;;;;;;;;;4131736;34;20722;-85
2021/04/19 00:48:46;;;;;;;10.55;2.87;;;;;;;;;;4120761;34;20135;-82
2021/04/19 00:51:14;;;;;;;7.47;2.78;;;;;;;;;;4130089;34;20112;-82
2021/04/19 00:53:42;;;;;;;13.13;2.80;;;;;;;;;;4119195;34;20212;-85
2021/04/19 00:56:13;;;;;;;14.80;2.90;;;;;;;;;;4118133;34;20252;-84
2021/04/19 00:58:45;;;;;;;10.63;2.42;;;;;;;;;;4133269;34;20075;-85
2021/04/19 01:01:17;;;;;;;8.43;2.58;;;;;;;;;;4126860;34;20065;-82
2021/04/19 01:03:48;;;;;;;10.40;2.60;;;;;;;;;;4112174;34;20142;-84
2021/04/19 01:06:19;;;;;;;12.65;2.70;;;;;;;;;;4131150;34;20213;-85
2021/04/19 01:08:47;;;;;;;7.25;2.00;;;;;;;;;;4127922;34;20488;-81
2021/04/19 01:11:18;;;;;;;9.40;2.67;;;;;;;;;;4130797;34;20486;-81
2021/04/19 01:13:47;;;;;;;8.90;2.08;;;;;;;;;;4135117;34;20052;-83
2021/04/19 01:16:18;;;;;;;7.87;2.00;;;;;;;;;;4119944;34;21466;-84
2021/04/19 01:18:48;;;;;;;12.77;2.70;;;;;;;;;;4118312;34;20772;-85
2021/04/19 01:21:19;;;;;;;10.07;2.50;;;;;;;;;;4136522;34;20133;-85
2021/04/19 01:23:51;;;;;;;11.12;2.72;;;;;;;;;;4138753;34;20087;-83
2021/04/19 01:26:22;;;;;;;7.55;2.20;;;;;;;;;;4135468;34;20116;-82
2021/04/19 01:28:55;;;;;;;10.65;2.90;;;;;;;;;;4125540;34;20072;-85
2021/04/19 01:31:23;;;;;;;9.60;2.55;;;;;;;;;;4147887;34;20645;-81
2021/04/19 01:33:56;;;;;;;14.05;3.12;;;;;;;;;;4132906;34;20133;-81
2021/04/19 01:36:27;;;;;;;9.77;2.50;;;;;;;;;;4122620;34;20126;-82
2021/04/19 01:38:58;;;;;;;13.75;2.80;;;;;;;;;;4126423;34;20194;-86
2021/04/19 01:41:29;;;;;;;13.85;2.97;;;;;;;;;;4149725;34;20833;-81
2021/04/19 01:44:03;;;;;;;13.05;2.90;;;;;;;;;;4117317;34;20094;-83
2021/04/19 01:46:33;;;;;;;7.93;2.70;;;;;;;;;;4133874;34;20163;-82
2021/04/19 01:49:14;;;;;;;11.93;2.87;;;;;;;;;;4138447;34;20107;-82
2021/04/19 01:51:45;;;;;;;9.50;2.37;;;;;;;;;;4136261;34;20052;-81
2021/04/19 01:54:16;;;;;;;8.50;2.37;;;;;;;;;;4141420;34;20651;-84
2021/04/19 01:56:47;;;;;;;10.82;2.53;;;;;;;;;;4115065;34;20057;-82
2021/04/19 01:59:17;;;;;;;10.80;2.58;;;;;;;;;;4147572;34;20068;-81
2021/04/19 02:02:07;;;;;;;11.80;2.30;;;;;;;;;;4149309;34;20133;-83
2021/04/19 02:04:40;;;;;;;17.30;3.00;;;;;;;;;;4143939;34;20104;-81
2021/04/19 02:07:20;;;;;;;10.40;2.28;;;;;;;;;;4144718;34;20064;-84
2021/04/19 02:09:51;;;;;;;11.40;2.90;;;;;;;;;;4143602;34;20519;-86
2021/04/19 02:12:39;;;;;;;14.55;2.53;;;;;;;;;;4117513;34;20119;-84
2021/04/19 02:15:18;;;;;;;8.38;2.55;;;;;;;;;;4143304;34;20102;-85
2021/04/19 02:17:58;;;;;;;10.50;2.80;;;;;;;;;;4135211;34;20068;-81
2021/04/19 02:20:46;;;;;;;12.63;3.15;;;;;;;;;;4149906;34;20214;-81
2021/04/19 02:23:31;;;;;;;10.57;2.80;;;;;;;;;;4151792;34;22180;-83
2021/04/19 02:26:04;;;;;;;10.25;2.95;;;;;;;;;;4126607;34;20070;-81
2021/04/19 02:28:41;;;;;;;10.43;2.45;;;;;;;;;;4133857;34;20187;-83
2021/04/19 02:31:14;;;;;;;12.13;2.83;;;;;;;;;;4130246;34;20135;-82
2021/04/19 02:33:45;;;;;;;11.60;3.17;;;;;;;;;;4127864;34;20083;-82
2021/04/19 02:36:17;;;;;;;8.18;2.67;;;;;;;;;;4131433;34;20126;-81
2021/04/19 02:38:50;;;;;;;11.55;3.00;;;;;;;;;;4143216;34;20461;-81
2021/04/19 02:41:22;;;;;;;13.38;3.40;;;;;;;;;;4154756;34;20088;-80
2021/04/19 02:43:53;;;;;;;11.77;3.42;;;;;;;;;;4147071;34;20117;-82
2021/04/19 02:46:29;;;;;;;11.90;2.70;;;;;;;;;;4147768;34;20127;-82
2021/04/19 02:49:00;;;;;;;12.35;2.92;;;;;;;;;;4154157;34;20262;-83
2021/04/19 02:51:31;;;;;;;8.65;2.65;;;;;;;;;;4123355;34;22044;-84
2021/04/19 02:54:02;;;;;;;9.65;2.90;;;;;;;;;;4145813;34;20134;-83
2021/04/19 02:56:33;;;;;;;9.45;2.30;;;;;;;;;;4140987;34;20251;-82
2021/04/19 02:59:07;;;;;;;11.68;4.85;;;;;;;;;;4150447;34;20083;-82
2021/04/19 03:01:40;;;;;;;16.87;9.82;;;;;;;;;;4147439;34;20742;-84
2021/04/19 03:04:14;;;;;;;15.38;11.00;;;;;;;;;;4151854;34;20561;-81
2021/04/19 03:06:48;;;;;;;10.77;8.32;;;;;;;;;;4142107;34;20081;-84
2021/04/19 03:09:21;;;;;;;18.17;15.40;;;;;;;;;;4151421;34;20127;-82
2021/04/19 03:11:55;;;;;;;18.45;14.40;;;;;;;;;;4151422;29;20515;-93
2021/04/19 03:14:46;;;;;;;21.05;16.40;;;;;;;;;;4143931;34;20171;-93
2021/04/19 03:17:20;;;;;;;18.77;16.70;;;;;;;;;;4133238;34;20066;-93
2021/04/19 03:20:08;;;;;;;18.42;13.23;;;;;;;;;;4124944;34;21215;-93
2021/04/19 03:22:49;;;;;;;14.23;11.70;;;;;;;;;;4122506;34;20134;-93
2021/04/19 03:25:19;;;;;;;19.65;11.40;;;;;;;;;;4124401;34;20114;-94
2021/04/19 03:27:54;;;;;;;13.77;11.57;;;;;;;;;;4123040;34;20084;-92
2021/04/19 03:30:30;;;;;;;13.57;11.52;;;;;;;;;;4131311;34;20637;-92
2021/04/19 03:33:05;;;;;;;17.27;12.60;;;;;;;;;;4125075;34;20056;-93
2021/04/19 03:35:38;;;;;;;15.32;12.27;;;;;;;;;;4122713;34;20056;-93
2021/04/19 03:38:13;;;;;;;15.43;11.12;;;;;;;;;;4125382;34;20118;-92
2021/04/19 03:40:47;;;;;;;18.92;11.85;;;;;;;;;;4127537;34;20128;-92
2021/04/19 03:43:20;;;;;;;12.65;9.50;;;;;;;;;;4134187;34;20075;-94
2021/04/19 03:45:55;;;;;;;13.43;9.63;;;;;;;;;;4125118;34;20108;-92
2021/04/19 03:48:26;;;;;;;18.60;11.65;;;;;;;;;;4118207;34;20065;-94
2021/04/19 03:51:03;;;;;;;13.10;10.87;;;;;;;;;;4134503;34;20071;-93
2021/04/19 03:53:35;;;;;;;16.35;11.12;;;;;;;;;;4115789;34;20099;-94
2021/04/19 03:56:07;;;;;;;16.02;11.10;;;;;;;;;;4121914;34;20067;-92
2021/04/19 03:58:37;;;;;;;17.77;11.75;;;;;;;;;;4141957;34;20083;-93
2021/04/19 04:01:13;;;;;;;16.95;11.00;;;;;;;;;;4133661;34;20483;-92
2021/04/19 04:03:49;;;;;;;11.65;9.95;;;;;;;;;;4131339;34;20075;-93
2021/04/19 04:06:26;;;;;;;13.15;10.88;;;;;;;;;;4111877;34;20060;-94
2021/04/19 04:09:00;;;;;;;14.05;12.02;;;;;;;;;;4132241;34;20069;-93
2021/04/19 04:12:03;;;;;;;17.00;11.52;;;;;;;;;;4112048;34;20061;-92
2021/04/19 04:14:31;;;;;;;11.07;2.40;;;;;;;;;;4121098;34;20803;-92
2021/04/19 04:17:06;;;;;;;10.68;2.75;;;;;;;;;;4112888;34;20065;-92
2021/04/19 04:19:41;;;;;;;9.60;2.40;;;;;;;;;;4129838;34;20112;-92
2021/04/19 04:22:12;;;;;;;9.93;2.53;;;;;;;;;;4130391;34;20053;-94
2021/04/19 04:24:48;;;;;;;8.23;2.50;;;;;;;;;;4132245;34;20128;-93
2021/04/19 04:27:19;;;;;;;7.95;2.50;;;;;;;;;;4111488;34;20119;-93
2021/04/19 04:29:59;;;;;;;9.60;2.30;;;;;;;;;;4111528;34;20126;-93
2021/04/19 04:32:34;;;;;;;8.55;2.25;;;;;;;;;;4122466;34;20433;-93
2021/04/19 04:35:06;;;;;;;10.38;3.25;;;;;;;;;;4105788;34;20053;-94
2021/04/19 04:37:53;;;;;;;10.68;2.87;;;;;;;;;;4110675;34;20104;-95
2021/04/19 04:40:30;;;;;;;11.38;2.50;;;;;;;;;;4136836;34;20056;-94
2021/04/19 04:43:04;;;;;;;8.43;2.60;;;;;;;;;;4103834;34;20071;-93
2021/04/19 04:45:38;;;;;;;15.57;2.78;;;;;;;;;;4111092;34;20052;-94
2021/04/19 04:48:25;;;;;;;10.20;2.47;;;;;;;;;;4127778;34;20076;-94
2021/04/19 04:51:12;;;;;;;9.75;2.85;;;;;;;;;;4127486;34;20423;-93
2021/04/19 04:53:48;;;;;;;9.88;2.50;;;;;;;;;;4117487;34;20096;-92
2021/04/19 04:56:23;;;;;;;11.32;2.90;;;;;;;;;;4111318;34;20490;-94
2021/04/19 04:58:54;;;;;;;7.32;2.30;;;;;;;;;;4107755;34;20050;-93
2021/04/19 05:01:24;;;;;;;10.80;2.22;;;;;;;;;;4121459;34;20100;-94
2021/04/19 05:03:53;;;;;;;6.75;2.20;;;;;;;;;;4108405;34;20146;-93
2021/04/19 05:06:24;;;;;;;6.97;2.20;;;;;;;;;;4131507;34;20455;-94
2021/04/19 05:08:53;;;;;;;8.55;2.40;;;;;;;;;;4132361;34;20490;-93
2021/04/19 05:11:27;;;;;;;10.57;2.87;;;;;;;;;;4123765;34;20466;-94
2021/04/19 05:14:12;;;;;;;12.77;2.60;;;;;;;;;;4139135;34;20061;-92
2021/04/19 05:16:43;;;;;;;7.97;2.67;;;;;;;;;;4129942;34;20134;-92
2021/04/19 05:19:14;;;;;;;9.27;2.45;;;;;;;;;;4108414;34;20099;-92
2021/04/19 05:21:48;;;;;;;8.52;2.35;;;;;;;;;;4126939;34;20053;-93
2021/04/19 05:24:25;;;;;;;8.63;2.42;;;;;;;;;;4105417;34;20480;-93
2021/04/19 05:26:56;;;;;;;10.85;2.80;;;;;;;;;;4127881;34;20141;-93
2021/04/19 05:29:32;;;;;;;10.07;3.03;;;;;;;;;;4122224;34;20499;-94
2021/04/19 05:32:08;;;;;;;8.90;2.97;;;;;;;;;;4107851;34;20057;-95
2021/04/19 05:34:37;;;;;;;9.45;2.70;;;;;;;;;;4102399;34;20054;-95
2021/04/19 05:37:14;;;;;;;8.70;2.60;;;;;;;;;;4117458;34;20061;-93
2021/04/19 05:39:45;;;;;;;10.65;2.95;;;;;;;;;;4119595;34;20080;-94
2021/04/19 05:42:27;;;;;;;8.05;2.30;;;;;;;;;;4112171;34;20091;-94
2021/04/19 05:45:01;;;;;;;7.57;2.53;;;;;;;;;;4118339;34;20114;-92
2021/04/19 05:47:34;;;;;;;7.95;2.40;;;;;;;;;;4111731;34;20781;-93
2021/04/19 05:50:09;;;;;;;9.88;2.28;;;;;;;;;;4108401;34;20419;-93
2021/04/19 05:52:39;;;;;;;6.35;2.03;;;;;;;;;;4118829;34;20071;-93
2021/04/19 05:55:20;;;;;;;10.82;2.65;;;;;;;;;;4119970;34;20128;-91
2021/04/19 05:57:56;;;;;;;8.63;2.40;;;;;;;;;;4133752;34;20427;-94
2021/04/19 06:00:34;;;;;;;6.57;2.70;;;;;;;;;;4112920;34;20131;-92
2021/04/19 06:03:25;;;;;;;6.20;2.60;;;;;;;;;;4131370;34;20080;-94
2021/04/19 06:06:14;;;;;;;12.55;2.87;;;;;;;;;;4107389;34;20102;-93
2021/04/19 06:08:49;;;;;;;5.15;2.92;;;;;;;;;;4121184;34;20085;-93
2021/04/19 06:11:17;;;;;;;13.18;2.65;;;;;;;;;;4107949;34;20076;-93
2021/04/19 06:13:57;;;;;;;8.80;3.00;;;;;;;;;;4116445;34;20098;-92
2021/04/19 06:16:27;;;;;;;13.27;3.28;;;;;;;;;;4105932;34;20103;-93
2021/04/19 06:19:16;;;;;;;8.18;2.70;;;;;;;;;;4115966;34;20068;-93
2021/04/19 06:21:45;;;;;;;8.18;2.78;;;;;;;;;;4111634;34;20104;-94
2021/04/19 06:24:36;;;;;;;8.73;2.78;;;;;;;;;;4101788;34;20111;-93
2021/04/19 06:27:10;;;;;;;8.10;2.90;;;;;;;;;;4123074;34;20327;-91
2021/04/19 06:29:41;;;;;;;9.48;2.80;;;;;;;;;;4122772;34;20139;-93
2021/04/19 06:32:12;;;;;;;7.05;3.97;;;;;;;;;;4110448;34;20053;-93
2021/04/19 06:34:46;;;;;;;13.10;3.10;;;;;;;;;;4115332;34;20057;-93
2021/04/19 06:37:22;;;;;;;9.82;2.53;;;;;;;;;;4116638;34;20089;-92
2021/04/19 06:42:49;;;;;;;12.32;2.62;;;;;;;;;;4114379;34;20079;-94
2021/04/19 06:45:25;;;;;;;10.07;2.83;;;;;;;;;;4111563;34;20177;-93
2021/04/19 06:47:58;;;;;;;9.45;3.35;;;;;;;;;;4106980;34;20071;-93
2021/04/19 06:50:41;;;;;;;6.45;2.67;;;;;;;;;;4110964;34;20152;-94
2021/04/19 06:53:16;;;;;;;15.48;12.88;;;;;;;;;;4110135;34;20162;-94
2021/04/19 06:55:51;;;;;;;20.35;17.65;;;;;;;;;;4109743;34;20084;-93
2021/04/19 06:58:34;;;;;;;22.90;17.17;;;;;;;;;;4115774;34;20061;-94
2021/04/19 07:01:06;;;;;;;23.02;20.73;;;;;;;;;;4118991;34;20081;-94
2021/04/19 07:03:44;;;;;;;23.87;19.95;;;;;;;;;;4124923;34;20103;-93
2021/04/19 07:06:45;;;;;;;80.18;75.87;;;;;;;;;;4112236;34;20163;-93
2021/04/19 07:09:27;;;;;;;4.30;4.10;;;;;;;;;;4111654;34;20080;-93
2021/04/19 07:12:09;;;;;;;5.93;5.62;;;;;;;;;;4109341;34;20085;-93
2021/04/19 07:14:50;;;;;;;0.70;0.70;;;;;;;;;;4113531;34;20065;-91
2021/04/19 07:17:26;;;;;;;17.40;16.25;;;;;;;;;;4109837;34;20407;-94
2021/04/19 07:19:54;;;;;;;26.12;24.42;;;;;;;;;;4111523;34;20146;-93
2021/04/19 07:22:29;;;;;;;11.32;10.68;;;;;;;;;;4121481;34;20143;-93
2021/04/19 07:25:02;;;;;;;24.17;22.77;;;;;;;;;;4131890;34;20045;-93
2021/04/19 07:27:34;;;;;;;8.75;8.35;;;;;;;;;;4120555;34;20065;-94
2021/04/19 07:30:22;;;;;;;13.02;12.35;;;;;;;;;;4132472;34;20118;-93
2021/04/19 07:33:03;;;;;;;15.88;15.02;;;;;;;;;;4118567;34;20104;-94
2021/04/19 07:35:39;;;;;;;4.75;4.60;;;;;;;;;;4123754;34;20087;-94
2021/04/19 07:38:08;;;;;;;14.27;13.40;;;;;;;;;;4110802;34;20076;-94
2021/04/19 07:40:49;;;;;;;14.00;13.02;;;;;;;;;;4131698;34;20062;-94
2021/04/19 07:43:24;;;;;;;1.52;1.52;;;;;;;;;;4122624;34;20120;-92
2021/04/19 07:46:06;;;;;;;11.30;10.68;;;;;;;;;;4105725;34;20111;-93
2021/04/19 07:48:39;;;;;;;10.75;10.18;;;;;;;;;;4118501;34;20065;-93
2021/04/19 07:51:27;;;;;;;1.00;1.00;;;;;;;;;;4112596;34;20081;-95
2021/04/19 07:54:09;;;;;;;;;;;;;;;;;;4105023;34;20061;-94
2021/04/19 07:56:43;;;;;;;585.78;262.65;;;;;;;;;;4127964;34;19997;-95
2021/04/19 07:59:22;;;;;;;32.05;30.60;;;;;;;;;;4117492;34;20072;-94
2021/04/19 08:02:09;;;;;;;28.15;26.90;;;;;;;;;;4128091;34;20118;-93
2021/04/19 08:04:45;;;;;;;79.62;76.05;;;;;;;;;;4122195;34;20053;-94
2021/04/19 08:07:29;;;;;;;16.80;16.10;;;;;;;;;;4120821;34;20075;-96
2021/04/19 08:10:10;;;;;;;37.15;35.55;;;;;;;;;;4107954;34;20046;-96
2021/04/19 08:12:45;;;;;;;12.82;12.32;;;;;;;;;;4104959;34;20061;-93
2021/04/19 08:15:22;;;;;;;32.63;31.23;;;;;;;;;;4130748;34;20534;-96
2021/04/19 08:18:18;;;;;;;33.00;31.55;;;;;;;;;;4107824;34;20056;-94
2021/04/19 08:20:54;;;;;;;67.50;64.55;;;;;;;;;;4115742;34;20107;-94
2021/04/19 08:23:22;;;;;;;40.08;38.33;;;;;;;;;;4120787;34;20120;-94
2021/04/19 08:25:56;;;;;;;27.05;25.90;;;;;;;;;;4118539;34;20058;-96
2021/04/19 08:28:29;;;;;;;52.50;50.20;;;;;;;;;;4128896;34;20096;-95
2021/04/19 08:31:06;;;;;;;11.48;11.02;;;;;;;;;;4107650;34;20065;-93
2021/04/19 08:33:42;;;;;;;31.10;29.75;;;;;;;;;;4128407;34;20065;-94
2021/04/19 08:36:17;;;;;;;25.73;24.63;;;;;;;;;;4106064;34;20096;-93
2021/04/19 08:38:51;;;;;;;17.95;17.20;;;;;;;;;;4119441;34;20091;-95
2021/04/19 08:41:19;;;;;;;32.67;31.23;;;;;;;;;;4108858;34;20113;-93
2021/04/19 08:43:55;;;;;;;24.42;23.38;;;;;;;;;;4115348;34;20092;-95
2021/04/19 08:46:43;;;;;;;15.77;15.18;;;;;;;;;;4118185;34;20053;-95
2021/04/19 08:49:12;;;;;;;471.80;427.75;;;;;;;;;;4107820;34;20150;-95
2021/04/19 08:51:47;;;;;;;1343.45;813.17;;;;;;;;;;4115658;34;20110;-95
2021/04/19 08:54:39;;;;;;;1327.57;791.83;;;;;;;;;;4108561;34;20069;-94
2021/04/19 08:57:13;;;;;;;1999.90;999.90;;;;;;;;;;4117296;34;20073;-96
2021/04/19 08:59:53;;;;;;;1999.90;999.90;;;;;;;;;;4119533;34;20107;-94
2021/04/19 09:02:25;;;;;;;1999.90;999.90;;;;;;;;;;4128085;34;20108;-94
2021/04/19 09:05:19;;;;;;;1999.90;999.90;;;;;;;;;;4128247;34;20424;-96
2021/04/19 09:07:50;;;;;;;1999.90;999.90;;;;;;;;;;4116992;34;20062;-96
2021/04/19 09:10:50;;;;;;;292.95;264.30;;;;;;;;;;4106568;34;20112;-95
2021/04/19 09:13:29;;;;;;;301.42;274.33;;;;;;;;;;4120244;34;20122;-94
2021/04/19 09:16:14;;;;;;;1999.90;999.90;;;;;;;;;;4127113;34;20090;-94
2021/04/19 09:18:54;;;;;;;1999.90;999.90;;;;;;;;;;4114178;34;20488;-95
2021/04/19 09:21:33;;;;;;;657.40;596.60;;;;;;;;;;4122569;34;20061;-95
2021/04/19 09:24:15;;;;;;;1999.90;999.90;;;;;;;;;;4130832;34;20052;-94
2021/04/19 09:26:50;;;;;;;1999.90;999.90;;;;;;;;;;4119757;34;21827;-96
2021/04/19 09:29:25;;;;;;;116.15;104.35;;;;;;;;;;4130705;34;20100;-94
2021/04/19 09:32:04;;;;;;;686.08;621.72;;;;;;;;;;4128289;34;20127;-92
2021/04/19 09:34:44;;;;;;;309.27;286.80;;;;;;;;;;4142646;34;20091;-94
2021/04/19 09:37:15;;;;;;;1999.90;999.90;;;;;;;;;;4125778;34;20107;-95
2021/04/19 09:43:03;;;;;;;1999.90;999.90;;;;;;;;;;4132618;34;20100;-96
2021/04/19 09:45:56;;;;;;;1999.90;999.90;;;;;;;;;;4144509;34;20098;-95
2021/04/19 09:49:08;;;;;;;;;;;;;;;;;;4125111;34;20052;-95
2021/04/19 09:51:55;;;;;;;1999.90;999.90;;;;;;;;;;4127819;34;19964;-94
2021/04/19 09:54:27;;;;;;;1999.90;999.90;;;;;;;;;;4124900;34;20486;-94
2021/04/19 09:57:15;;;;;;;443.98;397.33;;;;;;;;;;4119824;34;20089;-95
2021/04/19 09:59:52;;;;;;;1999.90;999.90;;;;;;;;;;4126681;34;20049;-95
2021/04/19 10:02:32;;;;;;;1569.15;802.13;;;;;;;;;;4122244;34;20726;-95
2021/04/19 10:05:24;;;;;;;1999.90;999.90;;;;;;;;;;4145380;34;20053;-96
2021/04/19 10:08:13;;;;;;;874.53;784.00;;;;;;;;;;4129112;34;20388;-94
2021/04/19 10:10:58;;;;;;;1999.90;999.90;;;;;;;;;;4117011;34;20071;-94
2021/04/19 10:14:00;;;;;;;1999.90;999.90;;;;;;;;;;4133924;34;20131;-94
2021/04/19 10:16:45;;;;;;;691.25;631.20;;;;;;;;;;4130607;34;20187;-95
2021/04/19 10:19:31;;;;;;;1999.90;999.90;;;;;;;;;;4135668;34;20053;-95
2021/04/19 10:22:01;;;;;;;;;;;;;;;;;;4125252;34;20721;-95
2021/04/19 10:24:52;;;;;;;1683.00;913.67;;;;;;;;;;4117956;34;20548;-94
2021/04/19 10:27:27;;;;;;;1999.90;999.90;;;;;;;;;;4125597;34;20083;-94
2021/04/19 10:30:14;;;;;;;1999.90;999.90;;;;;;;;;;4134139;34;20117;-95
2021/04/19 10:32:52;;;;;;;1999.90;999.90;;;;;;;;;;4127118;34;20107;-95
2021/04/19 10:35:30;;;;;;;1999.90;999.90;;;;;;;;;;4117432;34;20143;-94
2021/04/19 10:38:30;;;;;;;1999.90;999.90;;;;;;;;;;4131830;34;20100;-94
2021/04/19 10:41:06;;;;;;;1999.90;999.90;;;;;;;;;;4116864;34;20140;-94
2021/04/19 10:43:38;;;;;;;1999.90;999.90;;;;;;;;;;4127995;34;20091;-95
2021/04/19 10:46:21;;;;;;;1332.43;801.35;;;;;;;;;;4121019;34;20068;-95
2021/04/19 10:48:59;;;;;;;1999.90;999.90;;;;;;;;;;4136768;34;20057;-94
2021/04/19 10:51:34;;;;;;;1999.90;999.90;;;;;;;;;;4115271;34;20175;-94
2021/04/19 10:54:35;;;;;;;1999.90;999.90;;;;;;;;;;4117499;34;20166;-94
2021/04/19 10:57:32;;;;;;;1999.90;999.90;;;;;;;;;;4128354;34;20124;-94
2021/04/19 11:00:23;;;;;;;1999.90;999.90;;;;;;;;;;4134672;34;20054;-95
2021/04/19 11:02:57;;;;;;;1999.90;999.90;;;;;;;;;;4127903;34;20111;-94
2021/04/19 11:05:37;;;;;;;1999.90;999.90;;;;;;;;;;4137950;34;20049;-94
2021/04/19 11:08:12;;;;;;;976.03;844.37;;;;;;;;;;4138676;34;20422;-95
2021/04/19 11:10:49;;;;;;;1999.90;999.90;;;;;;;;;;4135608;34;20117;-95
2021/04/19 11:13:33;;;;;;;1999.90;999.90;;;;;;;;;;4119656;34;20069;-95
2021/04/19 11:16:24;;;;;;;1999.90;999.90;;;;;;;;;;4126179;34;20475;-95
2021/04/19 11:18:59;;;;;;;1999.90;999.90;;;;;;;;;;4125193;34;20049;-95
2021/04/19 11:21:34;;;;;;;1999.90;999.90;;;;;;;;;;4121309;34;20127;-96
2021/04/19 11:24:15;;;;;;;1999.90;999.90;;;;;;;;;;4130771;34;20061;-95
2021/04/19 11:26:49;;;;;;;1332.88;924.87;;;;;;;;;;4123704;34;20521;-95
2021/04/19 11:29:37;;;;;;;1999.90;999.90;;;;;;;;;;4129407;34;20069;-95
2021/04/19 11:32:26;;;;;;;1999.90;999.90;;;;;;;;;;4111718;34;20136;-94
2021/04/19 11:34:56;;;;;;;1999.90;999.90;;;;;;;;;;4111499;34;20058;-94
2021/04/19 11:37:42;;;;;;;1999.90;999.90;;;;;;;;;;4125637;34;20072;-95
2021/04/19 11:40:34;;;;;;;1999.90;999.90;;;;;;;;;;4124525;34;20071;-95
2021/04/19 11:43:20;;;;;;;1999.90;999.90;;;;;;;;;;4107235;34;20197;-93
2021/04/19 11:46:04;;;;;;;1999.90;999.90;;;;;;;;;;4124354;34;20103;-95
2021/04/19 11:48:55;;;;;;;1999.90;999.90;;;;;;;;;;4133241;34;20065;-95
2021/04/19 11:51:35;;;;;;;1999.90;999.90;;;;;;;;;;4133634;34;20085;-95
2021/04/19 11:54:11;;;;;;;1999.90;999.90;;;;;;;;;;4114079;34;20072;-94
2021/04/19 11:56:54;;;;;;;1999.90;999.90;;;;;;;;;;4120484;34;20061;-94
2021/04/19 11:59:40;;;;;;;436.67;402.27;;;;;;;;;;4134497;34;20054;-94
2021/04/19 12:02:17;;;;;;;1999.90;999.90;;;;;;;;;;4123547;34;20606;-94
2021/04/19 12:04:49;;;;;;;1999.90;999.90;;;;;;;;;;4113780;34;21997;-94
2021/04/19 12:07:27;;;;;;;1999.90;999.90;;;;;;;;;;4123676;34;20049;-94
2021/04/19 12:10:23;;;;;;;258.00;239.98;;;;;;;;;;4126812;34;20083;-94
2021/04/19 12:12:54;;;;;;;1999.90;999.90;;;;;;;;;;4123794;34;20037;-93
2021/04/19 12:15:38;;;;;;;1577.43;821.25;;;;;;;;;;4133663;34;20064;-95
2021/04/19 12:18:14;;;;;;;210.93;194.40;;;;;;;;;;4132226;34;20082;-94
2021/04/19 12:21:14;;;;;;;1999.90;999.90;;;;;;;;;;4124316;34;20060;-93
2021/04/19 12:23:50;;;;;;;1999.90;999.90;;;;;;;;;;4106332;34;20097;-93
2021/04/19 12:26:23;;;;;;;713.85;660.30;;;;;;;;;;4101005;34;20159;-94
2021/04/19 12:29:10;;;;;;;1999.90;999.90;;;;;;;;;;4122229;34;20056;-95
2021/04/19 12:31:52;;;;;;;337.73;311.00;;;;;;;;;;4122374;34;20104;-93
2021/04/19 12:34:22;;;;;;;1710.30;942.28;;;;;;;;;;4179913;29;20896;-82
2021/04/19 12:36:54;;;;;;;1999.90;999.90;;;;;;;;;;4124012;34;20100;-85
2021/04/19 12:39:26;;;;;;;1999.90;999.90;;;;;;;;;;4126869;34;20211;-81
2021/04/19 12:41:57;;;;;;;1999.90;999.90;;;;;;;;;;4119170;34;20171;-83
2021/04/19 12:44:28;;;;;;;702.55;645.22;;;;;;;;;;4123055;34;20061;-81
2021/04/19 12:46:59;;;;;;;802.78;737.42;;;;;;;;;;4111375;34;20096;-83
2021/04/19 12:49:30;;;;;;;715.80;656.87;;;;;;;;;;4111421;34;20197;-83
2021/04/19 12:52:00;;;;;;;675.00;622.05;;;;;;;;;;4123572;34;20748;-82
2021/04/19 12:54:31;;;;;;;603.58;552.47;;;;;;;;;;4120780;34;20169;-82
2021/04/19 12:57:05;;;;;;;718.40;654.65;;;;;;;;;;4119659;34;20198;-84
2021/04/19 12:59:36;;;;;;;370.55;339.88;;;;;;;;;;4124442;34;20119;-83
2021/04/19 13:02:07;;;;;;;532.33;490.70;;;;;;;;;;4128610;34;20103;-83
2021/04/19 13:04:38;;;;;;;572.30;521.97;;;;;;;;;;4128324;34;20190;-82
2021/04/19 13:07:08;;;;;;;771.05;704.72;;;;;;;;;;4123484;34;20558;-81
2021/04/19 13:09:37;;;;;;;597.47;546.03;;;;;;;;;;4123076;34;20045;-82
2021/04/19 13:12:08;;;;;;;691.00;635.45;;;;;;;;;;4132038;34;20061;-79
2021/04/19 13:14:42;;;;;;;509.37;469.55;;;;;;;;;;4126221;34;20053;-80
2021/04/19 13:17:12;;;;;;;595.25;547.40;;;;;;;;;;4122792;34;20455;-82
2021/04/19 13:19:44;;;;;;;403.88;375.48;;;;;;;;;;4123311;34;20124;-81
2021/04/19 13:22:14;;;;;;;652.00;599.90;;;;;;;;;;4122182;34;20116;-84
2021/04/19 13:24:45;;;;;;;324.58;300.80;;;;;;;;;;4122603;34;20169;-84
2021/04/19 13:27:15;;;;;;;347.92;325.02;;;;;;;;;;4118455;34;20438;-81
2021/04/19 13:29:46;;;;;;;674.00;621.33;;;;;;;;;;4123666;34;20079;-84
2021/04/19 13:32:18;;;;;;;552.45;512.12;;;;;;;;;;4137039;34;20117;-81
2021/04/19 13:34:48;;;;;;;663.75;612.53;;;;;;;;;;4134405;34;20068;-80
2021/04/19 13:37:19;;;;;;;459.80;424.65;;;;;;;;;;4136743;34;20108;-85
2021/04/19 13:39:50;;;;;;;671.33;619.17;;;;;;;;;;4132937;34;20440;-79
2021/04/19 13:42:20;;;;;;;609.25;562.03;;;;;;;;;;4134283;34;20425;-83
2021/04/19 13:44:50;;;;;;;400.87;368.88;;;;;;;;;;4134434;34;20100;-81
2021/04/19 13:47:20;;;;;;;416.40;384.95;;;;;;;;;;4128661;34;20100;-83
2021/04/19 13:49:51;;;;;;;647.17;596.15;;;;;;;;;;4132004;34;20213;-85
2021/04/19 13:52:22;;;;;;;545.58;505.25;;;;;;;;;;4132297;34;20461;-81
2021/04/19 13:54:54;;;;;;;628.85;582.67;;;;;;;;;;4134526;34;20057;-82
2021/04/19 13:57:24;;;;;;;604.35;553.55;;;;;;;;;;4129679;34;20140;-81
2021/04/19 13:59:55;;;;;;;504.60;464.15;;;;;;;;;;4128079;34;20085;-88
2021/04/19 14:02:26;;;;;;;388.48;357.45;;;;;;;;;;4132543;34;20069;-79
2021/04/19 14:04:58;;;;;;;492.15;455.02;;;;;;;;;;4126396;34;20595;-82
2021/04/19 14:07:28;;;;;;;650.55;599.08;;;;;;;;;;4133553;34;20092;-83
2021/04/19 14:10:00;;;;;;;335.50;312.73;;;;;;;;;;4132676;34;20182;-80
2021/04/19 14:12:33;;;;;;;676.85;622.72;;;;;;;;;;4129521;34;20424;-82
2021/04/19 14:15:04;;;;;;;682.55;629.25;;;;;;;;;;4136842;34;21039;-79
2021/04/19 14:17:35;;;;;;;765.95;705.35;;;;;;;;;;4132644;34;20139;-82
2021/04/19 14:20:12;;;;;;;556.78;512.58;;;;;;;;;;4137376;34;20084;-84
2021/04/19 14:22:42;;;;;;;651.08;599.03;;;;;;;;;;4133127;34;20080;-81
2021/04/19 14:25:13;;;;;;;823.20;757.30;;;;;;;;;;4143581;34;20119;-82
2021/04/19 14:27:44;;;;;;;727.67;671.50;;;;;;;;;;4132165;34;20135;-83
2021/04/19 14:30:15;;;;;;;572.55;527.50;;;;;;;;;;4138818;34;20142;-80
2021/04/19 14:32:46;;;;;;;897.58;820.70;;;;;;;;;;4144297;34;20065;-80
2021/04/19 14:35:16;;;;;;;519.78;482.30;;;;;;;;;;4137529;34;20132;-83
2021/04/19 14:37:47;;;;;;;784.70;723.55;;;;;;;;;;4129578;34;20084;-79
2021/04/19 14:40:19;;;;;;;686.25;630.72;;;;;;;;;;4140035;34;20285;-81
2021/04/19 14:42:49;;;;;;;646.92;598.05;;;;;;;;;;4132860;34;20083;-81
2021/04/19 14:45:21;;;;;;;780.40;720.15;;;;;;;;;;4136984;34;20127;-82
2021/04/19 14:47:51;;;;;;;834.45;763.47;;;;;;;;;;4140560;34;20440;-84
2021/04/19 14:50:22;;;;;;;588.45;541.65;;;;;;;;;;4135105;34;20103;-81
2021/04/19 14:52:52;;;;;;;592.10;549.30;;;;;;;;;;4135844;34;20522;-80
2021/04/19 14:55:22;;;;;;;848.47;779.55;;;;;;;;;;4126365;34;20108;-83
2021/04/19 14:57:52;;;;;;;890.50;795.50;;;;;;;;;;4130970;34;20083;-85
2021/04/19 15:00:24;;;;;;;1009.97;807.50;;;;;;;;;;4139573;34;20060;-80
2021/04/19 15:02:54;;;;;;;662.53;592.75;;;;;;;;;;4139319;34;20060;-80
2021/04/19 15:05:26;;;;;;;902.30;809.25;;;;;;;;;;4121789;34;20205;-80
2021/04/19 15:07:56;;;;;;;879.03;774.42;;;;;;;;;;4131365;34;20200;-85
2021/04/19 15:10:27;;;;;;;842.58;764.37;;;;;;;;;;4141225;34;20107;-81